createdAt,value
2023-05-07T00:00:06.468Z,0.00
2023-05-07T00:01:07.433Z,0.00
2023-05-07T00:02:06.816Z,0.00
2023-05-07T00:03:07.050Z,0.00
2023-05-07T00:04:07.210Z,0.00
2023-05-07T00:05:07.371Z,0.00
2023-05-07T00:06:07.435Z,0.00
2023-05-07T00:07:07.598Z,0.00
2023-05-07T00:08:08.589Z,0.00
2023-05-07T00:09:09.935Z,0.00
2023-05-07T00:10:08.226Z,0.00
2023-05-07T00:11:08.293Z,0.00
2023-05-07T00:12:08.990Z,0.00
2023-05-07T00:13:08.744Z,0.00
2023-05-07T00:14:09.926Z,0.00
2023-05-07T00:15:09.247Z,0.00
2023-05-07T00:16:09.511Z,0.00
2023-05-07T00:17:09.187Z,0.00
2023-05-07T00:18:09.338Z,0.00
2023-05-07T00:19:09.523Z,0.00
2023-05-07T00:20:09.868Z,0.00
2023-05-07T00:21:09.860Z,0.00
2023-05-07T00:22:11.946Z,0.00
2023-05-07T00:23:10.210Z,0.00
2023-05-07T00:24:10.410Z,0.00
2023-05-07T00:25:10.582Z,0.00
2023-05-07T00:26:10.743Z,0.00
2023-05-07T00:27:10.898Z,0.00
2023-05-07T00:28:11.078Z,0.00
2023-05-07T00:29:11.594Z,0.00
2023-05-07T00:30:13.561Z,0.00
2023-05-07T00:31:11.641Z,0.00
2023-05-07T00:32:11.864Z,0.00
2023-05-07T00:33:12.987Z,0.00
2023-05-07T00:34:12.376Z,0.00
2023-05-07T00:35:12.626Z,0.00
2023-05-07T00:36:14.473Z,0.00
2023-05-07T00:37:12.821Z,0.00
2023-05-07T00:38:13.001Z,0.00
2023-05-07T00:39:13.192Z,0.00
2023-05-07T00:40:14.448Z,0.00
2023-05-07T00:41:13.619Z,0.00
2023-05-07T00:42:15.438Z,0.00
2023-05-07T00:43:14.475Z,0.00
2023-05-07T00:44:14.242Z,0.00
2023-05-07T00:45:14.296Z,0.00
2023-05-07T00:46:35.529Z,0.00
2023-05-07T00:47:15.467Z,0.00
2023-05-07T00:48:15.331Z,0.00
2023-05-07T00:49:15.980Z,0.00
2023-05-07T00:50:15.211Z,0.00
2023-05-07T00:51:15.374Z,0.00
2023-05-07T00:52:15.532Z,0.00
2023-05-07T00:53:17.442Z,0.00
2023-05-07T00:54:15.800Z,0.00
2023-05-07T00:55:16.944Z,0.00
2023-05-07T00:56:16.506Z,0.00
2023-05-07T00:57:18.451Z,0.00
2023-05-07T00:58:16.451Z,0.00
2023-05-07T00:59:17.580Z,0.00
2023-05-07T01:00:17.442Z,0.00
2023-05-07T01:01:17.106Z,0.00
2023-05-07T01:02:17.154Z,0.00
2023-05-07T01:03:17.310Z,0.00
2023-05-07T01:04:17.659Z,0.00
2023-05-07T01:05:18.489Z,0.00
2023-05-07T01:06:17.892Z,0.00
2023-05-07T01:07:18.010Z,0.00
2023-05-07T01:08:18.150Z,0.00
2023-05-07T01:09:18.381Z,0.00
2023-05-07T01:10:20.453Z,0.00
2023-05-07T01:11:18.663Z,0.00
2023-05-07T01:12:18.818Z,0.00
2023-05-07T01:13:19.091Z,0.00
2023-05-07T01:14:20.485Z,0.00
2023-05-07T01:15:19.990Z,0.00
2023-05-07T01:16:19.551Z,0.00
2023-05-07T01:17:20.486Z,0.00
2023-05-07T01:18:21.465Z,0.00
2023-05-07T01:19:20.092Z,0.00
2023-05-07T01:20:20.210Z,0.00
2023-05-07T01:21:20.344Z,0.00
2023-05-07T01:22:20.483Z,0.00
2023-05-07T01:23:21.647Z,0.00
2023-05-07T01:24:20.744Z,0.00
2023-05-07T01:25:20.916Z,0.00
2023-05-07T01:26:22.954Z,0.00
2023-05-07T01:27:21.185Z,0.00
2023-05-07T01:28:21.310Z,0.00
2023-05-07T01:29:21.489Z,0.00
2023-05-07T01:30:22.356Z,0.00
2023-05-07T01:31:22.518Z,0.00
2023-05-07T01:32:22.007Z,0.00
2023-05-07T01:33:23.005Z,0.00
2023-05-07T01:34:22.372Z,0.00
2023-05-07T01:35:22.517Z,0.00
2023-05-07T01:36:22.651Z,0.00
2023-05-07T01:37:23.453Z,0.00
2023-05-07T01:38:23.484Z,0.00
2023-05-07T01:39:23.138Z,0.00
2023-05-07T01:40:23.289Z,0.00
2023-05-07T01:41:23.403Z,0.00
2023-05-07T01:42:23.539Z,0.00
2023-05-07T01:43:23.724Z,0.00
2023-05-07T01:44:23.883Z,0.00
2023-05-07T01:45:24.040Z,0.00
2023-05-07T01:46:24.313Z,0.00
2023-05-07T01:47:25.012Z,0.00
2023-05-07T01:48:24.487Z,0.00
2023-05-07T01:49:24.630Z,0.00
2023-05-07T01:50:25.456Z,0.00
2023-05-07T01:51:24.963Z,0.00
2023-05-07T01:52:25.115Z,0.00
2023-05-07T01:53:25.991Z,0.00
2023-05-07T01:54:25.406Z,0.00
2023-05-07T01:55:25.553Z,0.00
2023-05-07T01:56:25.694Z,0.00
2023-05-07T01:57:25.874Z,0.00
2023-05-07T01:58:26.020Z,0.00
2023-05-07T01:59:26.173Z,0.00
2023-05-07T02:00:27.020Z,0.00
2023-05-07T02:01:26.581Z,0.00
2023-05-07T02:02:27.682Z,0.00
2023-05-07T02:03:26.943Z,0.00
2023-05-07T02:04:27.021Z,0.00
2023-05-07T02:05:28.007Z,0.00
2023-05-07T02:06:27.396Z,0.00
2023-05-07T02:07:29.021Z,0.00
2023-05-07T02:08:27.761Z,0.00
2023-05-07T02:09:29.354Z,0.00
2023-05-07T02:10:28.087Z,0.00
2023-05-07T02:11:28.261Z,0.00
2023-05-07T02:12:28.425Z,0.00
2023-05-07T02:13:30.467Z,0.00
2023-05-07T02:14:28.829Z,0.00
2023-05-07T02:15:29.502Z,0.00
2023-05-07T02:16:30.068Z,0.00
2023-05-07T02:17:29.446Z,0.00
2023-05-07T02:18:29.683Z,0.00
2023-05-07T02:19:30.354Z,0.00
2023-05-07T02:20:29.872Z,0.00
2023-05-07T02:21:31.263Z,0.00
2023-05-07T02:22:31.219Z,0.00
2023-05-07T02:23:31.012Z,0.00
2023-05-07T02:24:30.507Z,0.00
2023-05-07T02:25:30.658Z,0.00
2023-05-07T02:26:31.016Z,0.00
2023-05-07T02:27:31.017Z,0.00
2023-05-07T02:28:32.970Z,0.00
2023-05-07T02:29:31.334Z,0.00
2023-05-07T02:30:32.857Z,0.00
2023-05-07T02:31:31.729Z,0.00
2023-05-07T02:32:31.919Z,0.00
2023-05-07T02:33:32.165Z,0.00
2023-05-07T02:34:32.190Z,0.00
2023-05-07T02:35:32.328Z,0.00
2023-05-07T02:36:33.862Z,0.00
2023-05-07T02:37:32.757Z,0.00
2023-05-07T02:38:32.917Z,0.00
2023-05-07T02:39:33.037Z,0.00
2023-05-07T02:40:33.983Z,0.00
2023-05-07T02:41:33.359Z,0.00
2023-05-07T02:42:33.505Z,0.00
2023-05-07T02:43:34.025Z,0.00
2023-05-07T02:44:34.517Z,0.00
2023-05-07T02:45:35.076Z,0.00
2023-05-07T02:46:34.208Z,0.00
2023-05-07T02:47:34.417Z,0.00
2023-05-07T02:48:36.182Z,0.00
2023-05-07T02:49:34.789Z,0.00
2023-05-07T02:50:34.924Z,0.00
2023-05-07T02:51:36.985Z,0.00
2023-05-07T02:52:35.306Z,0.00
2023-05-07T02:53:35.399Z,0.00
2023-05-07T02:54:35.559Z,0.00
2023-05-07T02:55:35.697Z,0.00
2023-05-07T02:56:35.812Z,0.00
2023-05-07T02:57:36.527Z,0.00
2023-05-07T02:58:36.160Z,0.00
2023-05-07T02:59:36.526Z,0.00
2023-05-07T03:00:36.410Z,0.00
2023-05-07T03:01:37.126Z,0.00
2023-05-07T03:02:36.772Z,0.00
2023-05-07T03:03:37.496Z,0.00
2023-05-07T03:04:37.457Z,0.00
2023-05-07T03:05:38.051Z,0.00
2023-05-07T03:06:37.575Z,0.00
2023-05-07T03:07:39.484Z,0.00
2023-05-07T03:08:37.836Z,0.00
2023-05-07T03:09:38.483Z,0.00
2023-05-07T03:10:38.984Z,0.00
2023-05-07T03:11:41.496Z,0.00
2023-05-07T03:12:39.989Z,0.00
2023-05-07T03:13:38.732Z,0.00
2023-05-07T03:14:40.372Z,0.00
2023-05-07T03:15:40.985Z,0.00
2023-05-07T03:16:40.415Z,0.00
2023-05-07T03:17:41.553Z,0.00
2023-05-07T03:18:40.476Z,0.00
2023-05-07T03:19:39.842Z,0.00
2023-05-07T03:20:40.636Z,0.00
2023-05-07T03:21:40.135Z,0.00
2023-05-07T03:22:40.398Z,0.00
2023-05-07T03:23:41.989Z,4.00
2023-05-07T03:24:42.483Z,4.00
2023-05-07T03:25:41.487Z,0.00
2023-05-07T03:26:41.086Z,0.00
2023-05-07T03:27:41.233Z,4.00
2023-05-07T03:28:41.365Z,4.00
2023-05-07T03:29:41.515Z,0.00
2023-05-07T03:30:41.654Z,4.00
2023-05-07T03:31:41.873Z,4.00
2023-05-07T03:32:41.983Z,4.00
2023-05-07T03:33:42.123Z,4.00
2023-05-07T03:34:44.497Z,4.00
2023-05-07T03:35:42.459Z,8.00
2023-05-07T03:36:42.691Z,8.00
2023-05-07T03:37:42.825Z,12.00
2023-05-07T03:38:42.985Z,12.00
2023-05-07T03:39:43.172Z,12.00
2023-05-07T03:40:43.321Z,16.00
2023-05-07T03:41:43.513Z,16.00
2023-05-07T03:42:44.486Z,16.00
2023-05-07T03:43:43.868Z,16.00
2023-05-07T03:44:45.985Z,20.00
2023-05-07T03:45:44.195Z,24.00
2023-05-07T03:46:45.083Z,24.00
2023-05-07T03:47:45.587Z,24.00
2023-05-07T03:48:44.743Z,28.00
2023-05-07T03:49:45.530Z,32.00
2023-05-07T03:50:45.121Z,36.00
2023-05-07T03:51:45.684Z,40.00
2023-05-07T03:52:45.322Z,44.00
2023-05-07T03:53:45.493Z,48.00
2023-05-07T03:54:46.495Z,52.00
2023-05-07T03:55:47.004Z,60.00
2023-05-07T03:56:46.039Z,68.00
2023-05-07T03:57:46.994Z,72.00
2023-05-07T03:58:46.414Z,80.00
2023-05-07T03:59:47.494Z,84.00
2023-05-07T04:00:47.499Z,96.00
2023-05-07T04:01:46.948Z,100.00
2023-05-07T04:02:48.128Z,104.00
2023-05-07T04:03:47.408Z,108.00
2023-05-07T04:04:47.466Z,108.00
2023-05-07T04:05:47.682Z,108.00
2023-05-07T04:06:47.868Z,112.00
2023-05-07T04:07:48.017Z,112.00
2023-05-07T04:08:48.140Z,116.00
2023-05-07T04:09:48.399Z,124.00
2023-05-07T04:10:48.531Z,132.00
2023-05-07T04:11:48.725Z,140.00
2023-05-07T04:12:49.589Z,148.00
2023-05-07T04:13:49.136Z,156.00
2023-05-07T04:14:49.275Z,164.00
2023-05-07T04:15:49.999Z,172.00
2023-05-07T04:16:49.699Z,180.00
2023-05-07T04:17:49.869Z,188.00
2023-05-07T04:18:49.947Z,196.00
2023-05-07T04:19:50.119Z,208.00
2023-05-07T04:20:50.558Z,220.00
2023-05-07T04:21:50.577Z,228.00
2023-05-07T04:22:51.502Z,240.00
2023-05-07T04:23:50.741Z,252.00
2023-05-07T04:24:50.884Z,264.00
2023-05-07T04:25:51.074Z,280.00
2023-05-07T04:26:51.232Z,300.00
2023-05-07T04:27:51.402Z,312.00
2023-05-07T04:28:51.597Z,328.00
2023-05-07T04:29:51.741Z,344.00
2023-05-07T04:30:51.877Z,356.00
2023-05-07T04:31:53.572Z,364.00
2023-05-07T04:32:53.578Z,368.00
2023-05-07T04:33:52.360Z,368.00
2023-05-07T04:34:52.506Z,368.00
2023-05-07T04:35:52.671Z,364.00
2023-05-07T04:36:55.095Z,364.00
2023-05-07T04:37:53.041Z,368.00
2023-05-07T04:38:53.560Z,380.00
2023-05-07T04:39:53.317Z,388.00
2023-05-07T04:40:53.478Z,400.00
2023-05-07T04:41:53.661Z,412.00
2023-05-07T04:42:53.822Z,416.00
2023-05-07T04:43:54.549Z,424.00
2023-05-07T04:44:54.178Z,436.00
2023-05-07T04:45:54.355Z,444.00
2023-05-07T04:46:54.562Z,460.00
2023-05-07T04:47:54.697Z,484.00
2023-05-07T04:48:54.837Z,508.00
2023-05-07T04:49:55.566Z,532.00
2023-05-07T04:50:56.048Z,560.00
2023-05-07T04:51:55.308Z,588.00
2023-05-07T04:52:55.533Z,616.00
2023-05-07T04:53:56.502Z,640.00
2023-05-07T04:54:56.510Z,660.00
2023-05-07T04:55:56.548Z,664.00
2023-05-07T04:56:56.187Z,680.00
2023-05-07T04:57:56.332Z,700.00
2023-05-07T04:58:56.501Z,728.00
2023-05-07T04:59:56.649Z,748.00
2023-05-07T05:00:57.652Z,768.00
2023-05-07T05:01:57.575Z,804.00
2023-05-07T05:02:58.098Z,832.00
2023-05-07T05:03:59.048Z,872.00
2023-05-07T05:04:57.483Z,908.00
2023-05-07T05:05:57.621Z,932.00
2023-05-07T05:06:57.766Z,948.00
2023-05-07T05:07:57.946Z,992.00
2023-05-07T05:08:58.215Z,1040.00
2023-05-07T05:09:59.013Z,1108.00
2023-05-07T05:10:58.396Z,1176.00
2023-05-07T05:11:58.585Z,1244.00
2023-05-07T05:13:00.042Z,1328.00
2023-05-07T05:13:58.940Z,1408.00
2023-05-07T05:14:59.106Z,1504.00
2023-05-07T05:15:59.444Z,1596.00
2023-05-07T05:16:59.425Z,1684.00
2023-05-07T05:18:00.163Z,1800.00
2023-05-07T05:18:59.732Z,1940.00
2023-05-07T05:20:00.535Z,2064.00
2023-05-07T05:21:00.033Z,2180.00
2023-05-07T05:22:00.196Z,2280.00
2023-05-07T05:23:00.323Z,2344.00
2023-05-07T05:24:00.451Z,2400.00
2023-05-07T05:25:01.614Z,2460.00
2023-05-07T05:26:01.596Z,2536.00
2023-05-07T05:27:01.912Z,2628.00
2023-05-07T05:28:01.146Z,2716.00
2023-05-07T05:29:01.331Z,2808.00
2023-05-07T05:30:01.446Z,2920.00
2023-05-07T05:31:03.106Z,3008.00
2023-05-07T05:32:02.064Z,3120.00
2023-05-07T05:33:02.166Z,3264.00
2023-05-07T05:34:02.134Z,3372.00
2023-05-07T05:35:04.541Z,3428.00
2023-05-07T05:36:02.480Z,3440.00
2023-05-07T05:37:02.611Z,3544.00
2023-05-07T05:38:03.530Z,3712.00
2023-05-07T05:39:03.567Z,3976.00
2023-05-07T05:40:03.076Z,4236.00
2023-05-07T05:41:03.236Z,4452.00
2023-05-07T05:42:04.070Z,4396.00
2023-05-07T05:43:03.601Z,4372.00
2023-05-07T05:44:03.739Z,4624.00
2023-05-07T05:45:04.081Z,4532.00
2023-05-07T05:46:04.138Z,4700.00
2023-05-07T05:47:05.527Z,4856.00
2023-05-07T05:48:04.515Z,5028.00
2023-05-07T05:49:04.699Z,5164.00
2023-05-07T05:50:04.868Z,5332.00
2023-05-07T05:51:05.116Z,5676.00
2023-05-07T05:52:05.269Z,5732.00
2023-05-07T05:53:06.064Z,5888.00
2023-05-07T05:54:05.585Z,6276.00
2023-05-07T05:55:05.771Z,6672.00
2023-05-07T05:56:06.009Z,7512.00
2023-05-07T05:57:06.135Z,7372.00
2023-05-07T05:58:06.265Z,7312.00
2023-05-07T05:59:07.097Z,6884.00
2023-05-07T06:00:06.587Z,7056.00
2023-05-07T06:01:06.779Z,7888.00
2023-05-07T06:02:07.576Z,8252.00
2023-05-07T06:03:07.167Z,10084.00
2023-05-07T06:04:07.226Z,9396.00
2023-05-07T06:05:07.385Z,7472.00
2023-05-07T06:06:08.078Z,6632.00
2023-05-07T06:07:09.033Z,6620.00
2023-05-07T06:08:07.922Z,6824.00
2023-05-07T06:09:08.091Z,7232.00
2023-05-07T06:10:09.122Z,8024.00
2023-05-07T06:11:09.493Z,7964.00
2023-05-07T06:12:10.493Z,9904.00
2023-05-07T06:13:08.858Z,9424.00
2023-05-07T06:14:09.038Z,8160.00
2023-05-07T06:15:09.207Z,8200.00
2023-05-07T06:16:10.067Z,8708.00
2023-05-07T06:17:11.049Z,10840.00
2023-05-07T06:18:09.884Z,14092.00
2023-05-07T06:19:10.546Z,16224.00
2023-05-07T06:20:31.016Z,14888.00
2023-05-07T06:21:11.661Z,10132.00
2023-05-07T06:22:10.386Z,8856.00
2023-05-07T06:23:10.562Z,8968.00
2023-05-07T06:24:10.714Z,9432.00
2023-05-07T06:25:11.572Z,9164.00
2023-05-07T06:26:11.577Z,9268.00
2023-05-07T06:27:11.191Z,9240.00
2023-05-07T06:28:11.413Z,9256.00
2023-05-07T06:29:11.708Z,9164.00
2023-05-07T06:30:12.009Z,8948.00
2023-05-07T06:31:11.989Z,8928.00
2023-05-07T06:32:12.266Z,8856.00
2023-05-07T06:33:12.283Z,8592.00
2023-05-07T06:34:12.426Z,8800.00
2023-05-07T06:35:12.547Z,8756.00
2023-05-07T06:36:12.683Z,8768.00
2023-05-07T06:37:13.546Z,8824.00
2023-05-07T06:38:13.009Z,9004.00
2023-05-07T06:39:13.217Z,9140.00
2023-05-07T06:40:14.552Z,9060.00
2023-05-07T06:41:13.613Z,9184.00
2023-05-07T06:42:13.962Z,9280.00
2023-05-07T06:43:15.046Z,9560.00
2023-05-07T06:44:15.048Z,10092.00
2023-05-07T06:45:14.605Z,9988.00
2023-05-07T06:46:14.634Z,10492.00
2023-05-07T06:47:16.052Z,10660.00
2023-05-07T06:48:16.043Z,12608.00
2023-05-07T06:49:36.980Z,15904.00
2023-05-07T06:50:16.608Z,23392.00
2023-05-07T06:51:16.548Z,31296.00
2023-05-07T06:52:16.552Z,29952.00
2023-05-07T06:53:16.596Z,33120.00
2023-05-07T06:54:17.108Z,27520.00
2023-05-07T06:55:16.355Z,29056.00
2023-05-07T06:56:16.627Z,26080.00
2023-05-07T06:57:16.721Z,23904.00
2023-05-07T06:58:16.861Z,27744.00
2023-05-07T06:59:17.122Z,29792.00
2023-05-07T07:00:18.100Z,27008.00
2023-05-07T07:01:17.662Z,24224.00
2023-05-07T07:02:18.688Z,20480.00
2023-05-07T07:03:19.569Z,24256.00
2023-05-07T07:04:17.967Z,21152.00
2023-05-07T07:05:19.055Z,18400.00
2023-05-07T07:06:18.304Z,15712.00
2023-05-07T07:07:18.469Z,14676.00
2023-05-07T07:08:18.656Z,15192.00
2023-05-07T07:09:21.586Z,17056.00
2023-05-07T07:10:18.995Z,12312.00
2023-05-07T07:11:19.612Z,11220.00
2023-05-07T07:12:19.438Z,11120.00
2023-05-07T07:13:19.662Z,11312.00
2023-05-07T07:14:20.554Z,9968.00
2023-05-07T07:15:19.936Z,9240.00
2023-05-07T07:16:20.152Z,9612.00
2023-05-07T07:17:22.025Z,10104.00
2023-05-07T07:18:20.616Z,11224.00
2023-05-07T07:19:20.639Z,11332.00
2023-05-07T07:20:20.791Z,11500.00
2023-05-07T07:21:20.935Z,10700.00
2023-05-07T07:22:22.053Z,11260.00
2023-05-07T07:23:22.062Z,10596.00
2023-05-07T07:24:23.564Z,9328.00
2023-05-07T07:25:21.663Z,9312.00
2023-05-07T07:26:21.822Z,8168.00
2023-05-07T07:27:21.969Z,7652.00
2023-05-07T07:28:22.187Z,7464.00
2023-05-07T07:29:22.318Z,7400.00
2023-05-07T07:30:24.082Z,7332.00
2023-05-07T07:31:22.808Z,7032.00
2023-05-07T07:32:24.017Z,7040.00
2023-05-07T07:33:23.154Z,7144.00
2023-05-07T07:34:23.371Z,7416.00
2023-05-07T07:35:25.627Z,7480.00
2023-05-07T07:36:32.105Z,7672.00
2023-05-07T07:37:24.773Z,7948.00
2023-05-07T07:38:23.985Z,8300.00
2023-05-07T07:39:24.145Z,8724.00
2023-05-07T07:40:24.414Z,8504.00
2023-05-07T07:41:24.466Z,8696.00
2023-05-07T07:42:24.616Z,8656.00
2023-05-07T07:43:26.587Z,8520.00
2023-05-07T07:44:25.608Z,8560.00
2023-05-07T07:45:25.092Z,8620.00
2023-05-07T07:46:25.227Z,8500.00
2023-05-07T07:47:25.434Z,8288.00
2023-05-07T07:48:26.645Z,8048.00
2023-05-07T07:49:25.775Z,7848.00
2023-05-07T07:50:42.939Z,7700.00
2023-05-07T07:51:29.110Z,7800.00
2023-05-07T07:52:27.065Z,7596.00
2023-05-07T07:53:27.101Z,6964.00
2023-05-07T07:54:27.624Z,6748.00
2023-05-07T07:55:26.880Z,6556.00
2023-05-07T07:56:27.008Z,6464.00
2023-05-07T07:57:27.617Z,6472.00
2023-05-07T07:58:27.354Z,6572.00
2023-05-07T07:59:28.159Z,6724.00
2023-05-07T08:00:27.760Z,6944.00
2023-05-07T08:01:27.907Z,7100.00
2023-05-07T08:02:28.130Z,7508.00
2023-05-07T08:03:28.291Z,7504.00
2023-05-07T08:04:28.430Z,7872.00
2023-05-07T08:05:29.572Z,8292.00
2023-05-07T08:06:28.798Z,8264.00
2023-05-07T08:07:29.130Z,8456.00
2023-05-07T08:08:29.160Z,8412.00
2023-05-07T08:09:29.310Z,8368.00
2023-05-07T08:10:29.457Z,8244.00
2023-05-07T08:11:29.617Z,8264.00
2023-05-07T08:12:29.801Z,8496.00
2023-05-07T08:13:30.001Z,8780.00
2023-05-07T08:14:31.202Z,9140.00
2023-05-07T08:15:31.584Z,9480.00
2023-05-07T08:16:31.315Z,11064.00
2023-05-07T08:17:30.715Z,15040.00
2023-05-07T08:18:30.773Z,18432.00
2023-05-07T08:19:30.952Z,16480.00
2023-05-07T08:20:31.158Z,13084.00
2023-05-07T08:21:32.469Z,12852.00
2023-05-07T08:22:31.491Z,12412.00
2023-05-07T08:23:32.582Z,11100.00
2023-05-07T08:24:31.833Z,10948.00
2023-05-07T08:25:31.971Z,11104.00
2023-05-07T08:26:32.115Z,10936.00
2023-05-07T08:27:32.269Z,10884.00
2023-05-07T08:28:32.423Z,12788.00
2023-05-07T08:29:33.180Z,19328.00
2023-05-07T08:30:32.824Z,14280.00
2023-05-07T08:31:32.992Z,11264.00
2023-05-07T08:32:33.658Z,10324.00
2023-05-07T08:33:35.130Z,8668.00
2023-05-07T08:34:33.502Z,8792.00
2023-05-07T08:35:33.692Z,8772.00
2023-05-07T08:36:33.857Z,8896.00
2023-05-07T08:37:34.046Z,8796.00
2023-05-07T08:38:34.661Z,8600.00
2023-05-07T08:39:34.437Z,8604.00
2023-05-07T08:40:35.092Z,9800.00
2023-05-07T08:41:34.717Z,9100.00
2023-05-07T08:42:34.876Z,9164.00
2023-05-07T08:43:35.634Z,9204.00
2023-05-07T08:44:35.492Z,9368.00
2023-05-07T08:45:35.353Z,8940.00
2023-05-07T08:46:35.537Z,8796.00
2023-05-07T08:47:35.722Z,8848.00
2023-05-07T08:48:35.871Z,8720.00
2023-05-07T08:49:36.056Z,8496.00
2023-05-07T08:50:37.133Z,8436.00
2023-05-07T08:51:36.409Z,8312.00
2023-05-07T08:52:36.526Z,9024.00
2023-05-07T08:53:38.628Z,9056.00
2023-05-07T08:54:37.593Z,9148.00
2023-05-07T08:55:37.094Z,9060.00
2023-05-07T08:56:38.112Z,9052.00
2023-05-07T08:57:40.046Z,9428.00
2023-05-07T08:58:38.099Z,9676.00
2023-05-07T08:59:37.720Z,12712.00
2023-05-07T09:00:37.935Z,11116.00
2023-05-07T09:01:38.127Z,11464.00
2023-05-07T09:02:38.203Z,10728.00
2023-05-07T09:03:39.179Z,9984.00
2023-05-07T09:04:38.612Z,9608.00
2023-05-07T09:05:39.633Z,10832.00
2023-05-07T09:06:38.885Z,11360.00
2023-05-07T09:07:39.642Z,11840.00
2023-05-07T09:08:39.156Z,12216.00
2023-05-07T09:09:40.142Z,11324.00
2023-05-07T09:10:39.643Z,9296.00
2023-05-07T09:11:39.780Z,8260.00
2023-05-07T09:12:39.952Z,7908.00
2023-05-07T09:13:40.132Z,8872.00
2023-05-07T09:14:41.143Z,9892.00
2023-05-07T09:15:40.548Z,9816.00
2023-05-07T09:16:40.754Z,8584.00
2023-05-07T09:17:40.850Z,7832.00
2023-05-07T09:18:43.113Z,7244.00
2023-05-07T09:19:42.103Z,7576.00
2023-05-07T09:20:42.099Z,8164.00
2023-05-07T09:21:41.650Z,8172.00
2023-05-07T09:22:42.630Z,7484.00
2023-05-07T09:23:41.866Z,7316.00
2023-05-07T09:24:42.013Z,7160.00
2023-05-07T09:25:43.129Z,7580.00
2023-05-07T09:26:42.385Z,7764.00
2023-05-07T09:27:42.523Z,8264.00
2023-05-07T09:28:43.651Z,8156.00
2023-05-07T09:29:43.618Z,8316.00
2023-05-07T09:30:43.713Z,9144.00
2023-05-07T09:31:43.346Z,12636.00
2023-05-07T09:32:43.411Z,16352.00
2023-05-07T09:33:43.467Z,14688.00
2023-05-07T09:34:43.591Z,12348.00
2023-05-07T09:35:44.162Z,10456.00
2023-05-07T09:36:44.687Z,9892.00
2023-05-07T09:37:45.156Z,9624.00
2023-05-07T09:38:44.372Z,8544.00
2023-05-07T09:39:44.529Z,8364.00
2023-05-07T09:40:45.182Z,8244.00
2023-05-07T09:41:45.617Z,8148.00
2023-05-07T09:42:45.109Z,7964.00
2023-05-07T09:43:45.248Z,8068.00
2023-05-07T09:44:45.377Z,8884.00
2023-05-07T09:45:45.698Z,9464.00
2023-05-07T09:46:45.810Z,9124.00
2023-05-07T09:47:46.680Z,8448.00
2023-05-07T09:48:46.169Z,8392.00
2023-05-07T09:49:46.191Z,8348.00
2023-05-07T09:50:46.330Z,8284.00
2023-05-07T09:51:46.484Z,8636.00
2023-05-07T09:52:46.648Z,8784.00
2023-05-07T09:53:48.113Z,8824.00
2023-05-07T09:54:47.752Z,9108.00
2023-05-07T09:55:48.175Z,8644.00
2023-05-07T09:56:49.126Z,8796.00
2023-05-07T09:57:49.122Z,9720.00
2023-05-07T09:58:48.634Z,10664.00
2023-05-07T09:59:48.182Z,11888.00
2023-05-07T10:00:48.164Z,11200.00
2023-05-07T10:01:49.319Z,8736.00
2023-05-07T10:02:48.551Z,8376.00
2023-05-07T10:03:49.847Z,8008.00
2023-05-07T10:04:49.625Z,7328.00
2023-05-07T10:05:48.930Z,6996.00
2023-05-07T10:06:49.093Z,7048.00
2023-05-07T10:07:50.121Z,6856.00
2023-05-07T10:08:49.513Z,6752.00
2023-05-07T10:09:49.672Z,6604.00
2023-05-07T10:10:50.632Z,6564.00
2023-05-07T10:11:50.026Z,6480.00
2023-05-07T10:12:50.228Z,6272.00
2023-05-07T10:13:50.422Z,6208.00
2023-05-07T10:14:51.402Z,6252.00
2023-05-07T10:15:50.822Z,6348.00
2023-05-07T10:16:50.990Z,6388.00
2023-05-07T10:17:51.338Z,6436.00
2023-05-07T10:18:51.376Z,6436.00
2023-05-07T10:19:51.544Z,6480.00
2023-05-07T10:20:55.148Z,6600.00
2023-05-07T10:21:51.889Z,6648.00
2023-05-07T10:22:54.126Z,6624.00
2023-05-07T10:23:53.629Z,6596.00
2023-05-07T10:24:52.415Z,6536.00
2023-05-07T10:25:57.263Z,6352.00
2023-05-07T10:26:53.735Z,6152.00
2023-05-07T10:27:52.872Z,6016.00
2023-05-07T10:28:53.050Z,5952.00
2023-05-07T10:29:54.127Z,5768.00
2023-05-07T10:30:53.384Z,5644.00
2023-05-07T10:31:53.554Z,5436.00
2023-05-07T10:32:54.876Z,5296.00
2023-05-07T10:33:53.878Z,5252.00
2023-05-07T10:34:54.043Z,5104.00
2023-05-07T10:35:54.156Z,4936.00
2023-05-07T10:36:55.193Z,4740.00
2023-05-07T10:37:56.137Z,4608.00
2023-05-07T10:38:54.759Z,4560.00
2023-05-07T10:39:55.637Z,4444.00
2023-05-07T10:40:55.060Z,4420.00
2023-05-07T10:41:55.228Z,4352.00
2023-05-07T10:42:56.184Z,4236.00
2023-05-07T10:43:56.205Z,4180.00
2023-05-07T10:44:55.754Z,4156.00
2023-05-07T10:45:56.668Z,4060.00
2023-05-07T10:46:56.189Z,3992.00
2023-05-07T10:47:56.244Z,3848.00
2023-05-07T10:48:56.479Z,3692.00
2023-05-07T10:49:57.191Z,3564.00
2023-05-07T10:50:57.641Z,3388.00
2023-05-07T10:51:57.005Z,3200.00
2023-05-07T10:52:58.141Z,3120.00
2023-05-07T10:53:57.297Z,2956.00
2023-05-07T10:54:58.184Z,2856.00
2023-05-07T10:55:58.188Z,2688.00
2023-05-07T10:56:58.682Z,2580.00
2023-05-07T10:57:58.197Z,2472.00
2023-05-07T10:58:58.684Z,2380.00
2023-05-07T10:59:59.353Z,2312.00
2023-05-07T11:01:00.142Z,2260.00
2023-05-07T11:01:59.381Z,2256.00
2023-05-07T11:02:59.256Z,2292.00
2023-05-07T11:03:59.777Z,2360.00
2023-05-07T11:04:59.299Z,2452.00
2023-05-07T11:06:00.181Z,2516.00
2023-05-07T11:06:59.537Z,2564.00
2023-05-07T11:08:00.199Z,2612.00
2023-05-07T11:08:59.827Z,2676.00
2023-05-07T11:10:00.002Z,2724.00
2023-05-07T11:11:00.205Z,2756.00
2023-05-07T11:12:00.343Z,2816.00
2023-05-07T11:13:00.518Z,2888.00
2023-05-07T11:14:00.696Z,2996.00
2023-05-07T11:15:00.834Z,3080.00
2023-05-07T11:16:01.643Z,3148.00
2023-05-07T11:17:02.640Z,3216.00
2023-05-07T11:18:01.755Z,3304.00
2023-05-07T11:19:01.615Z,3396.00
2023-05-07T11:20:01.818Z,3448.00
2023-05-07T11:21:03.663Z,3488.00
2023-05-07T11:22:02.659Z,3556.00
2023-05-07T11:23:02.294Z,3592.00
2023-05-07T11:24:02.445Z,3656.00
2023-05-07T11:25:04.167Z,3700.00
2023-05-07T11:26:04.554Z,3760.00
2023-05-07T11:27:02.904Z,3808.00
2023-05-07T11:28:03.080Z,3824.00
2023-05-07T11:29:05.150Z,3816.00
2023-05-07T11:30:03.374Z,3784.00
2023-05-07T11:31:04.189Z,3808.00
2023-05-07T11:32:03.854Z,3816.00
2023-05-07T11:33:03.889Z,3792.00
2023-05-07T11:34:03.968Z,3780.00
2023-05-07T11:35:05.741Z,3764.00
2023-05-07T11:36:05.213Z,3764.00
2023-05-07T11:37:04.597Z,3776.00
2023-05-07T11:38:04.761Z,3804.00
2023-05-07T11:39:06.659Z,3920.00
2023-05-07T11:40:05.141Z,3896.00
2023-05-07T11:41:05.306Z,4040.00
2023-05-07T11:42:05.544Z,3700.00
2023-05-07T11:43:05.706Z,3592.00
2023-05-07T11:44:06.224Z,3572.00
2023-05-07T11:45:05.992Z,3556.00
2023-05-07T11:46:06.242Z,3536.00
2023-05-07T11:47:06.309Z,3544.00
2023-05-07T11:48:07.238Z,3508.00
2023-05-07T11:49:06.674Z,3456.00
2023-05-07T11:50:06.925Z,3392.00
2023-05-07T11:51:07.017Z,3332.00
2023-05-07T11:52:07.190Z,3228.00
2023-05-07T11:53:07.370Z,3076.00
2023-05-07T11:54:07.543Z,2912.00
2023-05-07T11:55:07.729Z,2740.00
2023-05-07T11:56:08.700Z,2600.00
2023-05-07T11:57:09.547Z,2500.00
2023-05-07T11:58:10.751Z,2452.00
2023-05-07T11:59:08.484Z,2428.00
2023-05-07T12:00:08.709Z,2412.00
2023-05-07T12:01:08.781Z,2408.00
2023-05-07T12:02:09.069Z,2396.00
2023-05-07T12:03:10.373Z,2372.00
2023-05-07T12:04:09.571Z,2368.00
2023-05-07T12:05:10.516Z,2352.00
2023-05-07T12:06:09.816Z,2356.00
2023-05-07T12:07:10.264Z,2392.00
2023-05-07T12:08:10.206Z,2428.00
2023-05-07T12:09:10.435Z,2452.00
2023-05-07T12:10:10.632Z,2460.00
2023-05-07T12:11:11.732Z,2480.00
2023-05-07T12:12:11.227Z,2512.00
2023-05-07T12:13:11.711Z,2532.00
2023-05-07T12:14:12.498Z,2540.00
2023-05-07T12:15:12.741Z,2568.00
2023-05-07T12:16:11.661Z,2588.00
2023-05-07T12:17:12.596Z,2604.00
2023-05-07T12:18:12.092Z,2608.00
2023-05-07T12:19:13.750Z,2636.00
2023-05-07T12:20:12.386Z,2668.00
2023-05-07T12:21:12.640Z,2728.00
2023-05-07T12:22:14.180Z,2792.00
2023-05-07T12:23:13.761Z,2836.00
2023-05-07T12:24:15.693Z,2868.00
2023-05-07T12:25:13.595Z,2924.00
2023-05-07T12:26:13.479Z,2964.00
2023-05-07T12:27:14.220Z,3072.00
2023-05-07T12:28:14.679Z,3144.00